sensor_id;sensor_type;location;lat;lon;timestamp;temperature;humidity
37956;DHT22;23776;51.592;7.180;2023-08-12T00:00:08;20.60;44.50
37956;DHT22;23776;51.592;7.180;2023-08-12T00:02:40;20.60;45.00
37956;DHT22;23776;51.592;7.180;2023-08-12T00:05:07;20.60;44.70
37956;DHT22;23776;51.592;7.180;2023-08-12T00:07:33;20.60;44.80
37956;DHT22;23776;51.592;7.180;2023-08-12T00:10:03;20.50;44.60
37956;DHT22;23776;51.592;7.180;2023-08-12T00:12:33;20.50;45.10
37956;DHT22;23776;51.592;7.180;2023-08-12T00:15:00;20.60;45.00
37956;DHT22;23776;51.592;7.180;2023-08-12T00:17:26;20.60;45.30
37956;DHT22;23776;51.592;7.180;2023-08-12T00:19:51;20.60;43.80
37956;DHT22;23776;51.592;7.180;2023-08-12T00:22:17;20.60;44.50
37956;DHT22;23776;51.592;7.180;2023-08-12T00:24:43;20.60;44.00
37956;DHT22;23776;51.592;7.180;2023-08-12T00:27:10;20.60;45.20
37956;DHT22;23776;51.592;7.180;2023-08-12T00:29:35;20.70;44.80
37956;DHT22;23776;51.592;7.180;2023-08-12T00:32:01;20.60;45.20
37956;DHT22;23776;51.592;7.180;2023-08-12T00:34:27;20.70;43.10
37956;DHT22;23776;51.592;7.180;2023-08-12T00:36:53;20.70;43.40
37956;DHT22;23776;51.592;7.180;2023-08-12T00:39:18;20.70;43.20
37956;DHT22;23776;51.592;7.180;2023-08-12T00:41:44;20.60;44.30
37956;DHT22;23776;51.592;7.180;2023-08-12T00:44:10;20.60;45.80
37956;DHT22;23776;51.592;7.180;2023-08-12T00:46:37;20.70;45.50
37956;DHT22;23776;51.592;7.180;2023-08-12T00:49:04;20.70;45.00
37956;DHT22;23776;51.592;7.180;2023-08-12T00:51:30;20.60;42.70
37956;DHT22;23776;51.592;7.180;2023-08-12T00:53:58;20.60;42.70
37956;DHT22;23776;51.592;7.180;2023-08-12T00:56:25;20.50;44.80
37956;DHT22;23776;51.592;7.180;2023-08-12T00:58:52;20.50;43.90
37956;DHT22;23776;51.592;7.180;2023-08-12T01:01:17;20.50;44.10
37956;DHT22;23776;51.592;7.180;2023-08-12T01:03:43;20.50;44.10
37956;DHT22;23776;51.592;7.180;2023-08-12T01:08:35;20.40;47.00
37956;DHT22;23776;51.592;7.180;2023-08-12T01:11:48;20.40;47.30
37956;DHT22;23776;51.592;7.180;2023-08-12T01:14:19;20.40;47.60
37956;DHT22;23776;51.592;7.180;2023-08-12T01:16:50;20.50;49.40
37956;DHT22;23776;51.592;7.180;2023-08-12T01:19:37;20.60;49.20
37956;DHT22;23776;51.592;7.180;2023-08-12T01:22:05;20.50;47.80
37956;DHT22;23776;51.592;7.180;2023-08-12T01:24:42;20.40;48.40
37956;DHT22;23776;51.592;7.180;2023-08-12T01:27:09;20.40;48.50
37956;DHT22;23776;51.592;7.180;2023-08-12T01:29:39;20.30;48.50
37956;DHT22;23776;51.592;7.180;2023-08-12T01:32:30;20.30;48.40
37956;DHT22;23776;51.592;7.180;2023-08-12T01:35:01;20.40;49.40
37956;DHT22;23776;51.592;7.180;2023-08-12T01:37:29;20.40;49.60
37956;DHT22;23776;51.592;7.180;2023-08-12T01:39:59;20.40;48.60
37956;DHT22;23776;51.592;7.180;2023-08-12T01:42:27;20.30;49.10
37956;DHT22;23776;51.592;7.180;2023-08-12T01:44:54;20.30;49.90
37956;DHT22;23776;51.592;7.180;2023-08-12T01:47:20;20.20;50.30
37956;DHT22;23776;51.592;7.180;2023-08-12T01:49:45;20.20;50.20
37956;DHT22;23776;51.592;7.180;2023-08-12T01:52:11;20.20;50.80
37956;DHT22;23776;51.592;7.180;2023-08-12T01:54:36;20.20;51.10
37956;DHT22;23776;51.592;7.180;2023-08-12T01:57:03;20.30;51.90
37956;DHT22;23776;51.592;7.180;2023-08-12T01:59:34;20.40;52.00
37956;DHT22;23776;51.592;7.180;2023-08-12T02:01:59;20.40;51.50
37956;DHT22;23776;51.592;7.180;2023-08-12T02:04:26;20.40;51.20
37956;DHT22;23776;51.592;7.180;2023-08-12T02:06:52;20.40;51.10
37956;DHT22;23776;51.592;7.180;2023-08-12T02:09:17;20.40;51.30
37956;DHT22;23776;51.592;7.180;2023-08-12T02:11:43;20.50;51.80
37956;DHT22;23776;51.592;7.180;2023-08-12T02:14:09;20.50;52.10
37956;DHT22;23776;51.592;7.180;2023-08-12T02:16:34;20.50;52.10
37956;DHT22;23776;51.592;7.180;2023-08-12T02:19:00;20.50;52.00
37956;DHT22;23776;51.592;7.180;2023-08-12T02:21:25;20.40;51.30
37956;DHT22;23776;51.592;7.180;2023-08-12T02:23:51;20.40;51.40
37956;DHT22;23776;51.592;7.180;2023-08-12T02:26:16;20.50;52.80
37956;DHT22;23776;51.592;7.180;2023-08-12T02:28:42;20.50;52.80
37956;DHT22;23776;51.592;7.180;2023-08-12T02:31:08;20.50;52.60
37956;DHT22;23776;51.592;7.180;2023-08-12T02:33:33;20.50;52.80
37956;DHT22;23776;51.592;7.180;2023-08-12T02:35:59;20.50;53.10
37956;DHT22;23776;51.592;7.180;2023-08-12T02:38:24;20.50;52.60
37956;DHT22;23776;51.592;7.180;2023-08-12T02:40:50;19.90;52.10
37956;DHT22;23776;51.592;7.180;2023-08-12T02:43:17;20.50;52.50
37956;DHT22;23776;51.592;7.180;2023-08-12T02:45:42;20.50;49.30
37956;DHT22;23776;51.592;7.180;2023-08-12T02:48:10;20.40;49.10
37956;DHT22;23776;51.592;7.180;2023-08-12T02:50:36;20.40;52.30
37956;DHT22;23776;51.592;7.180;2023-08-12T02:53:02;20.40;52.70
37956;DHT22;23776;51.592;7.180;2023-08-12T02:55:28;20.40;52.40
37956;DHT22;23776;51.592;7.180;2023-08-12T02:57:54;20.40;51.40
37956;DHT22;23776;51.592;7.180;2023-08-12T03:00:20;20.40;51.40
37956;DHT22;23776;51.592;7.180;2023-08-12T03:02:45;20.40;51.80
37956;DHT22;23776;51.592;7.180;2023-08-12T03:05:11;20.40;51.90
37956;DHT22;23776;51.592;7.180;2023-08-12T03:07:36;20.40;51.40
37956;DHT22;23776;51.592;7.180;2023-08-12T03:10:02;20.40;51.40
37956;DHT22;23776;51.592;7.180;2023-08-12T03:12:27;20.40;52.00
37956;DHT22;23776;51.592;7.180;2023-08-12T03:14:53;20.40;52.30
37956;DHT22;23776;51.592;7.180;2023-08-12T03:17:18;20.40;52.90
37956;DHT22;23776;51.592;7.180;2023-08-12T03:19:44;20.40;52.30
37956;DHT22;23776;51.592;7.180;2023-08-12T03:22:10;20.40;52.80
37956;DHT22;23776;51.592;7.180;2023-08-12T03:24:35;20.50;52.70
37956;DHT22;23776;51.592;7.180;2023-08-12T03:27:01;20.50;51.80
37956;DHT22;23776;51.592;7.180;2023-08-12T03:29:27;20.40;51.50
37956;DHT22;23776;51.592;7.180;2023-08-12T03:31:52;20.40;52.10
37956;DHT22;23776;51.592;7.180;2023-08-12T03:34:18;23.10;52.90
37956;DHT22;23776;51.592;7.180;2023-08-12T03:36:43;20.40;52.10
37956;DHT22;23776;51.592;7.180;2023-08-12T03:39:11;20.40;51.80
37956;DHT22;23776;51.592;7.180;2023-08-12T03:41:36;20.40;50.40
37956;DHT22;23776;51.592;7.180;2023-08-12T03:44:02;20.40;50.70
37956;DHT22;23776;51.592;7.180;2023-08-12T03:46:28;20.40;50.80
37956;DHT22;23776;51.592;7.180;2023-08-12T03:48:53;20.40;50.40
37956;DHT22;23776;51.592;7.180;2023-08-12T03:51:19;20.40;50.40
37956;DHT22;23776;51.592;7.180;2023-08-12T03:53:44;20.40;50.80
37956;DHT22;23776;51.592;7.180;2023-08-12T03:56:10;20.40;50.80
37956;DHT22;23776;51.592;7.180;2023-08-12T03:58:40;20.40;50.20
37956;DHT22;23776;51.592;7.180;2023-08-12T04:01:05;20.40;49.20
37956;DHT22;23776;51.592;7.180;2023-08-12T04:03:31;20.40;49.20
37956;DHT22;23776;51.592;7.180;2023-08-12T04:05:57;20.40;49.70
37956;DHT22;23776;51.592;7.180;2023-08-12T04:08:23;20.40;48.10
37956;DHT22;23776;51.592;7.180;2023-08-12T04:10:50;20.40;49.90
37956;DHT22;23776;51.592;7.180;2023-08-12T04:13:16;20.40;50.60
37956;DHT22;23776;51.592;7.180;2023-08-12T04:15:42;20.40;50.70
37956;DHT22;23776;51.592;7.180;2023-08-12T04:18:07;20.40;49.60
37956;DHT22;23776;51.592;7.180;2023-08-12T04:20:33;20.50;49.40
37956;DHT22;23776;51.592;7.180;2023-08-12T04:22:59;20.50;50.20
37956;DHT22;23776;51.592;7.180;2023-08-12T04:25:25;20.50;49.30
37956;DHT22;23776;51.592;7.180;2023-08-12T04:27:51;20.50;46.60
37956;DHT22;23776;51.592;7.180;2023-08-12T04:30:17;20.50;45.30
37956;DHT22;23776;51.592;7.180;2023-08-12T04:32:43;20.50;45.50
37956;DHT22;23776;51.592;7.180;2023-08-12T04:35:09;20.50;46.10
37956;DHT22;23776;51.592;7.180;2023-08-12T04:37:35;20.60;45.70
37956;DHT22;23776;51.592;7.180;2023-08-12T04:40:01;20.60;45.00
37956;DHT22;23776;51.592;7.180;2023-08-12T04:42:29;20.60;45.20
37956;DHT22;23776;51.592;7.180;2023-08-12T04:44:55;20.70;44.70
37956;DHT22;23776;51.592;7.180;2023-08-12T04:47:20;20.60;43.70
37956;DHT22;23776;51.592;7.180;2023-08-12T04:49:46;20.70;43.10
37956;DHT22;23776;51.592;7.180;2023-08-12T04:52:12;20.70;43.60
37956;DHT22;23776;51.592;7.180;2023-08-12T04:54:37;20.70;43.90
37956;DHT22;23776;51.592;7.180;2023-08-12T04:57:03;20.60;44.40
37956;DHT22;23776;51.592;7.180;2023-08-12T04:59:29;20.60;45.80
37956;DHT22;23776;51.592;7.180;2023-08-12T05:01:54;20.70;44.70
37956;DHT22;23776;51.592;7.180;2023-08-12T05:04:20;20.70;45.60
37956;DHT22;23776;51.592;7.180;2023-08-12T05:06:45;20.70;44.90
37956;DHT22;23776;51.592;7.180;2023-08-12T05:09:11;20.70;45.50
37956;DHT22;23776;51.592;7.180;2023-08-12T05:11:37;20.70;45.00
37956;DHT22;23776;51.592;7.180;2023-08-12T05:14:02;20.70;44.40
37956;DHT22;23776;51.592;7.180;2023-08-12T05:16:28;20.80;43.80
37956;DHT22;23776;51.592;7.180;2023-08-12T05:18:54;20.80;43.20
37956;DHT22;23776;51.592;7.180;2023-08-12T05:21:20;20.80;42.30
37956;DHT22;23776;51.592;7.180;2023-08-12T05:23:46;20.90;41.40
37956;DHT22;23776;51.592;7.180;2023-08-12T05:26:11;20.90;40.50
37956;DHT22;23776;51.592;7.180;2023-08-12T05:28:37;21.00;40.50
37956;DHT22;23776;51.592;7.180;2023-08-12T05:31:02;21.10;37.10
37956;DHT22;23776;51.592;7.180;2023-08-12T05:33:28;21.20;34.40
37956;DHT22;23776;51.592;7.180;2023-08-12T05:35:53;21.20;30.90
37956;DHT22;23776;51.592;7.180;2023-08-12T05:38:19;21.40;28.50
37956;DHT22;23776;51.592;7.180;2023-08-12T05:40:45;21.50;23.50
37956;DHT22;23776;51.592;7.180;2023-08-12T05:43:10;21.40;22.70
37956;DHT22;23776;51.592;7.180;2023-08-12T05:45:36;21.40;21.30
37956;DHT22;23776;51.592;7.180;2023-08-12T05:48:02;21.40;21.60
37956;DHT22;23776;51.592;7.180;2023-08-12T05:50:27;21.30;22.40
37956;DHT22;23776;51.592;7.180;2023-08-12T05:52:53;21.30;23.90
37956;DHT22;23776;51.592;7.180;2023-08-12T05:55:19;21.30;24.20
37956;DHT22;23776;51.592;7.180;2023-08-12T05:57:44;21.30;24.70
37956;DHT22;23776;51.592;7.180;2023-08-12T06:00:10;21.30;23.70
37956;DHT22;23776;51.592;7.180;2023-08-12T06:02:36;21.20;24.50
37956;DHT22;23776;51.592;7.180;2023-08-12T06:05:02;21.20;21.40
37956;DHT22;23776;51.592;7.180;2023-08-12T06:07:28;21.20;25.80
37956;DHT22;23776;51.592;7.180;2023-08-12T06:09:53;21.20;24.40
37956;DHT22;23776;51.592;7.180;2023-08-12T06:12:19;21.20;24.60
37956;DHT22;23776;51.592;7.180;2023-08-12T06:14:44;21.20;26.20
37956;DHT22;23776;51.592;7.180;2023-08-12T06:17:10;21.20;26.20
37956;DHT22;23776;51.592;7.180;2023-08-12T06:19:36;21.20;23.80
37956;DHT22;23776;51.592;7.180;2023-08-12T06:22:02;21.20;24.90
37956;DHT22;23776;51.592;7.180;2023-08-12T06:24:28;21.30;24.60
37956;DHT22;23776;51.592;7.180;2023-08-12T06:26:54;21.40;19.80
37956;DHT22;23776;51.592;7.180;2023-08-12T06:29:19;21.40;18.50
37956;DHT22;23776;51.592;7.180;2023-08-12T06:31:45;21.40;17.80
37956;DHT22;23776;51.592;7.180;2023-08-12T06:34:10;21.40;16.70
37956;DHT22;23776;51.592;7.180;2023-08-12T06:36:36;21.40;17.90
37956;DHT22;23776;51.592;7.180;2023-08-12T06:39:01;21.20;17.20
37956;DHT22;23776;51.592;7.180;2023-08-12T06:41:27;21.10;18.80
37956;DHT22;23776;51.592;7.180;2023-08-12T06:43:53;21.00;22.50
37956;DHT22;23776;51.592;7.180;2023-08-12T06:46:18;20.90;25.80
37956;DHT22;23776;51.592;7.180;2023-08-12T06:48:44;20.90;29.30
37956;DHT22;23776;51.592;7.180;2023-08-12T06:51:09;20.90;32.20
37956;DHT22;23776;51.592;7.180;2023-08-12T06:53:39;20.90;31.70
37956;DHT22;23776;51.592;7.180;2023-08-12T06:56:05;20.80;31.30
37956;DHT22;23776;51.592;7.180;2023-08-12T06:58:31;20.80;32.30
37956;DHT22;23776;51.592;7.180;2023-08-12T07:00:57;20.70;32.80
37956;DHT22;23776;51.592;7.180;2023-08-12T07:03:24;20.70;29.90
37956;DHT22;23776;51.592;7.180;2023-08-12T07:05:50;20.70;36.20
37956;DHT22;23776;51.592;7.180;2023-08-12T07:08:15;20.60;40.60
37956;DHT22;23776;51.592;7.180;2023-08-12T07:10:41;20.70;41.80
37956;DHT22;23776;51.592;7.180;2023-08-12T07:13:07;20.60;42.10
37956;DHT22;23776;51.592;7.180;2023-08-12T07:15:32;20.60;38.80
37956;DHT22;23776;51.592;7.180;2023-08-12T07:17:58;20.60;42.80
37956;DHT22;23776;51.592;7.180;2023-08-12T07:20:25;20.60;36.10
37956;DHT22;23776;51.592;7.180;2023-08-12T07:22:50;20.60;39.10
37956;DHT22;23776;51.592;7.180;2023-08-12T07:25:16;20.60;39.40
37956;DHT22;23776;51.592;7.180;2023-08-12T07:27:42;20.50;41.10
37956;DHT22;23776;51.592;7.180;2023-08-12T07:30:08;20.60;43.10
37956;DHT22;23776;51.592;7.180;2023-08-12T07:32:36;20.60;44.50
37956;DHT22;23776;51.592;7.180;2023-08-12T07:35:03;20.60;41.30
37956;DHT22;23776;51.592;7.180;2023-08-12T07:37:28;20.60;42.40
37956;DHT22;23776;51.592;7.180;2023-08-12T07:39:54;20.70;38.80
37956;DHT22;23776;51.592;7.180;2023-08-12T07:42:20;20.60;39.50
37956;DHT22;23776;51.592;7.180;2023-08-12T07:44:46;20.80;39.00
37956;DHT22;23776;51.592;7.180;2023-08-12T07:47:11;20.80;37.60
37956;DHT22;23776;51.592;7.180;2023-08-12T07:49:37;20.90;34.30
37956;DHT22;23776;51.592;7.180;2023-08-12T07:52:03;20.90;28.70
37956;DHT22;23776;51.592;7.180;2023-08-12T07:54:29;20.90;29.60
37956;DHT22;23776;51.592;7.180;2023-08-12T07:56:55;20.90;25.30
37956;DHT22;23776;51.592;7.180;2023-08-12T07:59:20;20.90;23.10
37956;DHT22;23776;51.592;7.180;2023-08-12T08:01:46;20.90;20.40
37956;DHT22;23776;51.592;7.180;2023-08-12T08:04:12;21.00;19.70
37956;DHT22;23776;51.592;7.180;2023-08-12T08:06:37;21.00;19.20
37956;DHT22;23776;51.592;7.180;2023-08-12T08:09:03;21.00;14.30
37956;DHT22;23776;51.592;7.180;2023-08-12T08:11:30;21.10;13.40
37956;DHT22;23776;51.592;7.180;2023-08-12T08:13:58;21.10;10.70
37956;DHT22;23776;51.592;7.180;2023-08-12T08:16:24;21.30;14.30
37956;DHT22;23776;51.592;7.180;2023-08-12T08:18:50;21.60;13.20
37956;DHT22;23776;51.592;7.180;2023-08-12T08:21:15;21.80;3.60
37956;DHT22;23776;51.592;7.180;2023-08-12T08:23:42;21.90;1.00
37956;DHT22;23776;51.592;7.180;2023-08-12T08:26:08;21.90;1.00
37956;DHT22;23776;51.592;7.180;2023-08-12T08:28:34;21.90;1.00
37956;DHT22;23776;51.592;7.180;2023-08-12T08:31:00;21.80;1.00
37956;DHT22;23776;51.592;7.180;2023-08-12T08:33:26;21.80;1.00
37956;DHT22;23776;51.592;7.180;2023-08-12T08:35:53;21.70;1.00
37956;DHT22;23776;51.592;7.180;2023-08-12T08:38:18;21.60;1.00
37956;DHT22;23776;51.592;7.180;2023-08-12T08:40:44;21.60;1.00
37956;DHT22;23776;51.592;7.180;2023-08-12T08:43:09;21.50;1.00
37956;DHT22;23776;51.592;7.180;2023-08-12T08:45:38;21.50;1.00
37956;DHT22;23776;51.592;7.180;2023-08-12T08:48:05;21.50;1.00
37956;DHT22;23776;51.592;7.180;2023-08-12T08:50:32;21.60;1.00
37956;DHT22;23776;51.592;7.180;2023-08-12T08:52:57;21.70;1.00
37956;DHT22;23776;51.592;7.180;2023-08-12T08:55:25;21.80;1.00
37956;DHT22;23776;51.592;7.180;2023-08-12T08:57:51;21.90;1.00
37956;DHT22;23776;51.592;7.180;2023-08-12T09:00:18;21.90;1.00
37956;DHT22;23776;51.592;7.180;2023-08-12T09:02:47;21.80;1.00
37956;DHT22;23776;51.592;7.180;2023-08-12T09:05:16;21.80;1.00
37956;DHT22;23776;51.592;7.180;2023-08-12T09:07:43;21.80;1.00
37956;DHT22;23776;51.592;7.180;2023-08-12T09:10:10;21.80;1.00
37956;DHT22;23776;51.592;7.180;2023-08-12T09:12:36;21.70;1.00
37956;DHT22;23776;51.592;7.180;2023-08-12T09:15:02;21.70;1.00
37956;DHT22;23776;51.592;7.180;2023-08-12T09:17:30;21.70;1.00
37956;DHT22;23776;51.592;7.180;2023-08-12T09:19:57;21.70;1.00
37956;DHT22;23776;51.592;7.180;2023-08-12T09:22:26;21.70;1.00
37956;DHT22;23776;51.592;7.180;2023-08-12T09:24:57;21.70;1.00
37956;DHT22;23776;51.592;7.180;2023-08-12T09:27:24;21.80;1.00
37956;DHT22;23776;51.592;7.180;2023-08-12T09:29:50;21.70;1.00
37956;DHT22;23776;51.592;7.180;2023-08-12T09:32:21;21.70;1.00
37956;DHT22;23776;51.592;7.180;2023-08-12T09:34:52;21.60;1.00
37956;DHT22;23776;51.592;7.180;2023-08-12T09:37:19;21.60;1.00
37956;DHT22;23776;51.592;7.180;2023-08-12T09:39:46;21.60;1.00
37956;DHT22;23776;51.592;7.180;2023-08-12T09:42:13;21.50;1.00
37956;DHT22;23776;51.592;7.180;2023-08-12T09:44:39;21.50;1.00
37956;DHT22;23776;51.592;7.180;2023-08-12T09:47:06;21.50;1.00
37956;DHT22;23776;51.592;7.180;2023-08-12T09:49:32;21.50;1.00
37956;DHT22;23776;51.592;7.180;2023-08-12T09:51:57;21.50;1.00
37956;DHT22;23776;51.592;7.180;2023-08-12T09:54:26;21.50;1.00
37956;DHT22;23776;51.592;7.180;2023-08-12T09:56:56;21.60;1.00
37956;DHT22;23776;51.592;7.180;2023-08-12T09:59:24;21.60;1.00
37956;DHT22;23776;51.592;7.180;2023-08-12T10:01:53;21.70;1.00
37956;DHT22;23776;51.592;7.180;2023-08-12T10:04:22;21.70;1.00
37956;DHT22;23776;51.592;7.180;2023-08-12T10:06:48;21.70;1.00
37956;DHT22;23776;51.592;7.180;2023-08-12T10:09:17;21.70;1.00
37956;DHT22;23776;51.592;7.180;2023-08-12T10:11:45;21.70;1.00
37956;DHT22;23776;51.592;7.180;2023-08-12T10:14:12;21.70;1.00
37956;DHT22;23776;51.592;7.180;2023-08-12T10:16:39;21.70;1.00
37956;DHT22;23776;51.592;7.180;2023-08-12T10:19:05;21.60;1.00
37956;DHT22;23776;51.592;7.180;2023-08-12T10:21:32;21.50;1.00
37956;DHT22;23776;51.592;7.180;2023-08-12T10:24:00;21.50;1.00
37956;DHT22;23776;51.592;7.180;2023-08-12T10:26:29;21.40;7.30
37956;DHT22;23776;51.592;7.180;2023-08-12T10:28:55;21.50;16.20
37956;DHT22;23776;51.592;7.180;2023-08-12T10:31:21;21.50;11.10
37956;DHT22;23776;51.592;7.180;2023-08-12T10:33:47;21.40;13.00
37956;DHT22;23776;51.592;7.180;2023-08-12T10:36:15;21.30;17.90
37956;DHT22;23776;51.592;7.180;2023-08-12T10:38:44;21.30;23.20
37956;DHT22;23776;51.592;7.180;2023-08-12T10:41:20;21.30;23.80
37956;DHT22;23776;51.592;7.180;2023-08-12T10:44:00;21.40;32.60
37956;DHT22;23776;51.592;7.180;2023-08-12T10:46:34;21.60;36.50
37956;DHT22;23776;51.592;7.180;2023-08-12T10:49:08;21.70;28.20
37956;DHT22;23776;51.592;7.180;2023-08-12T10:51:54;21.90;17.30
37956;DHT22;23776;51.592;7.180;2023-08-12T10:54:27;21.90;11.90
37956;DHT22;23776;51.592;7.180;2023-08-12T11:04:54;22.60;1.00
37956;DHT22;23776;51.592;7.180;2023-08-12T11:07:28;22.90;1.00
37956;DHT22;23776;51.592;7.180;2023-08-12T11:09:59;23.10;1.00
37956;DHT22;23776;51.592;7.180;2023-08-12T11:12:30;23.10;1.00
37956;DHT22;23776;51.592;7.180;2023-08-12T11:15:00;23.20;1.00
37956;DHT22;23776;51.592;7.180;2023-08-12T11:17:39;23.20;1.00
37956;DHT22;23776;51.592;7.180;2023-08-12T11:20:09;22.90;1.00
37956;DHT22;23776;51.592;7.180;2023-08-12T11:22:38;22.90;1.00
37956;DHT22;23776;51.592;7.180;2023-08-12T11:25:12;22.90;1.00
37956;DHT22;23776;51.592;7.180;2023-08-12T11:27:43;22.90;1.00
37956;DHT22;23776;51.592;7.180;2023-08-12T11:30:11;22.70;1.00
37956;DHT22;23776;51.592;7.180;2023-08-12T11:32:40;22.60;1.00
37956;DHT22;23776;51.592;7.180;2023-08-12T11:35:08;22.60;1.00
37956;DHT22;23776;51.592;7.180;2023-08-12T11:37:35;22.60;1.00
37956;DHT22;23776;51.592;7.180;2023-08-12T11:40:03;22.80;1.00
37956;DHT22;23776;51.592;7.180;2023-08-12T11:42:30;22.80;1.00
37956;DHT22;23776;51.592;7.180;2023-08-12T11:44:55;22.80;1.00
37956;DHT22;23776;51.592;7.180;2023-08-12T11:47:21;23.00;1.00
37956;DHT22;23776;51.592;7.180;2023-08-12T11:52:13;23.60;1.00
37956;DHT22;23776;51.592;7.180;2023-08-12T11:54:40;23.70;99.90
37956;DHT22;23776;51.592;7.180;2023-08-12T11:57:05;23.90;99.90
37956;DHT22;23776;51.592;7.180;2023-08-12T11:59:31;23.00;99.90
37956;DHT22;23776;51.592;7.180;2023-08-12T12:01:57;24.10;99.90
37956;DHT22;23776;51.592;7.180;2023-08-12T12:04:24;24.00;99.90
37956;DHT22;23776;51.592;7.180;2023-08-12T12:06:51;24.00;99.90
37956;DHT22;23776;51.592;7.180;2023-08-12T12:09:16;23.80;99.90
37956;DHT22;23776;51.592;7.180;2023-08-12T12:11:44;23.50;99.90
37956;DHT22;23776;51.592;7.180;2023-08-12T12:14:10;23.30;99.90
37956;DHT22;23776;51.592;7.180;2023-08-12T12:16:43;23.10;99.90
37956;DHT22;23776;51.592;7.180;2023-08-12T12:19:20;22.90;1.00
37956;DHT22;23776;51.592;7.180;2023-08-12T12:21:49;22.70;1.00
37956;DHT22;23776;51.592;7.180;2023-08-12T12:24:16;22.50;1.00
37956;DHT22;23776;51.592;7.180;2023-08-12T12:26:43;22.20;1.00
37956;DHT22;23776;51.592;7.180;2023-08-12T12:29:10;22.00;1.00
37956;DHT22;23776;51.592;7.180;2023-08-12T12:31:39;21.90;1.00
37956;DHT22;23776;51.592;7.180;2023-08-12T12:34:05;21.80;1.00
37956;DHT22;23776;51.592;7.180;2023-08-12T12:36:35;21.60;1.00
37956;DHT22;23776;51.592;7.180;2023-08-12T12:39:04;21.60;1.00
37956;DHT22;23776;51.592;7.180;2023-08-12T12:41:31;21.50;1.00
37956;DHT22;23776;51.592;7.180;2023-08-12T12:43:57;21.60;1.00
37956;DHT22;23776;51.592;7.180;2023-08-12T12:46:22;21.60;2.20
37956;DHT22;23776;51.592;7.180;2023-08-12T12:48:48;21.60;7.50
37956;DHT22;23776;51.592;7.180;2023-08-12T12:51:14;22.00;6.20
37956;DHT22;23776;51.592;7.180;2023-08-12T12:53:40;21.60;6.40
37956;DHT22;23776;51.592;7.180;2023-08-12T12:56:06;21.60;6.00
37956;DHT22;23776;51.592;7.180;2023-08-12T12:58:36;21.50;5.90
37956;DHT22;23776;51.592;7.180;2023-08-12T13:01:03;21.40;7.80
37956;DHT22;23776;51.592;7.180;2023-08-12T13:03:30;21.20;12.10
37956;DHT22;23776;51.592;7.180;2023-08-12T13:05:56;21.20;15.90
37956;DHT22;23776;51.592;7.180;2023-08-12T13:08:22;21.10;19.20
37956;DHT22;23776;51.592;7.180;2023-08-12T13:10:48;21.10;22.00
37956;DHT22;23776;51.592;7.180;2023-08-12T13:13:15;21.10;26.10
37956;DHT22;23776;51.592;7.180;2023-08-12T13:15:42;21.00;26.10
37956;DHT22;23776;51.592;7.180;2023-08-12T13:18:07;21.00;31.30
37956;DHT22;23776;51.592;7.180;2023-08-12T13:20:34;21.00;35.90
37956;DHT22;23776;51.592;7.180;2023-08-12T13:23:00;21.00;43.60
37956;DHT22;23776;51.592;7.180;2023-08-12T13:25:35;21.00;44.60
37956;DHT22;23776;51.592;7.180;2023-08-12T13:28:02;21.00;48.30
37956;DHT22;23776;51.592;7.180;2023-08-12T13:30:28;21.00;51.00
37956;DHT22;23776;51.592;7.180;2023-08-12T13:32:54;21.10;48.40
37956;DHT22;23776;51.592;7.180;2023-08-12T13:35:21;21.10;44.50
37956;DHT22;23776;51.592;7.180;2023-08-12T13:37:47;21.10;45.00
37956;DHT22;23776;51.592;7.180;2023-08-12T13:40:12;21.10;43.90
37956;DHT22;23776;51.592;7.180;2023-08-12T13:42:40;21.00;50.20
37956;DHT22;23776;51.592;7.180;2023-08-12T13:45:06;20.90;50.90
37956;DHT22;23776;51.592;7.180;2023-08-12T13:47:34;20.90;52.30
37956;DHT22;23776;51.592;7.180;2023-08-12T13:49:59;21.00;50.50
37956;DHT22;23776;51.592;7.180;2023-08-12T13:52:25;21.00;50.90
37956;DHT22;23776;51.592;7.180;2023-08-12T13:54:51;21.00;52.70
37956;DHT22;23776;51.592;7.180;2023-08-12T13:57:16;21.10;52.80
37956;DHT22;23776;51.592;7.180;2023-08-12T13:59:42;21.20;51.30
37956;DHT22;23776;51.592;7.180;2023-08-12T14:02:12;21.10;50.80
37956;DHT22;23776;51.592;7.180;2023-08-12T14:04:38;21.10;51.60
37956;DHT22;23776;51.592;7.180;2023-08-12T14:07:05;21.00;52.90
37956;DHT22;23776;51.592;7.180;2023-08-12T14:09:30;21.00;53.20
37956;DHT22;23776;51.592;7.180;2023-08-12T14:11:57;20.80;52.90
37956;DHT22;23776;51.592;7.180;2023-08-12T14:14:22;20.80;55.00
37956;DHT22;23776;51.592;7.180;2023-08-12T14:16:48;20.80;54.70
37956;DHT22;23776;51.592;7.180;2023-08-12T14:19:14;20.80;55.80
37956;DHT22;23776;51.592;7.180;2023-08-12T14:21:42;20.90;57.80
37956;DHT22;23776;51.592;7.180;2023-08-12T14:24:08;20.80;58.20
37956;DHT22;23776;51.592;7.180;2023-08-12T14:26:34;21.20;62.30
37956;DHT22;23776;51.592;7.180;2023-08-12T14:29:00;21.70;62.80
37956;DHT22;23776;51.592;7.180;2023-08-12T14:31:26;22.00;48.50
37956;DHT22;23776;51.592;7.180;2023-08-12T14:33:52;22.50;46.50
37956;DHT22;23776;51.592;7.180;2023-08-12T14:36:17;23.10;16.90
37956;DHT22;23776;51.592;7.180;2023-08-12T14:38:43;23.80;1.00
37956;DHT22;23776;51.592;7.180;2023-08-12T14:41:08;24.00;1.00
37956;DHT22;23776;51.592;7.180;2023-08-12T14:43:34;24.40;99.90
37956;DHT22;23776;51.592;7.180;2023-08-12T14:46:00;24.50;99.90
37956;DHT22;23776;51.592;7.180;2023-08-12T14:48:25;24.40;99.90
37956;DHT22;23776;51.592;7.180;2023-08-12T14:50:51;24.10;99.90
37956;DHT22;23776;51.592;7.180;2023-08-12T14:53:16;25.30;1.00
37956;DHT22;23776;51.592;7.180;2023-08-12T14:55:42;27.20;1.00
37956;DHT22;23776;51.592;7.180;2023-08-12T14:58:08;27.60;82.50
37956;DHT22;23776;51.592;7.180;2023-08-12T15:00:33;29.50;99.90
37956;DHT22;23776;51.592;7.180;2023-08-12T15:02:59;29.90;1.00
37956;DHT22;23776;51.592;7.180;2023-08-12T15:05:25;30.10;99.90
37956;DHT22;23776;51.592;7.180;2023-08-12T15:07:51;30.30;99.90
37956;DHT22;23776;51.592;7.180;2023-08-12T15:10:16;29.40;99.90
37956;DHT22;23776;51.592;7.180;2023-08-12T15:12:42;28.20;99.90
37956;DHT22;23776;51.592;7.180;2023-08-12T15:15:09;29.00;53.10
37956;DHT22;23776;51.592;7.180;2023-08-12T15:17:35;29.20;33.70
37956;DHT22;23776;51.592;7.180;2023-08-12T15:20:00;28.30;5.80
37956;DHT22;23776;51.592;7.180;2023-08-12T15:22:26;28.00;1.00
37956;DHT22;23776;51.592;7.180;2023-08-12T15:24:52;26.70;18.50
37956;DHT22;23776;51.592;7.180;2023-08-12T15:27:18;25.40;3.80
37956;DHT22;23776;51.592;7.180;2023-08-12T15:29:44;24.70;41.60
37956;DHT22;23776;51.592;7.180;2023-08-12T15:32:10;23.90;1.00
37956;DHT22;23776;51.592;7.180;2023-08-12T15:34:36;24.10;99.90
37956;DHT22;23776;51.592;7.180;2023-08-12T15:37:02;26.50;99.90
37956;DHT22;23776;51.592;7.180;2023-08-12T15:39:29;28.90;99.90
37956;DHT22;23776;51.592;7.180;2023-08-12T15:41:55;31.40;90.40
37956;DHT22;23776;51.592;7.180;2023-08-12T15:44:20;32.70;99.90